Time;durP1;ratioP1;P1;durP2;ratioP2;P2;SDS_P1;SDS_P2;PMS_P1;PMS_P2;Temp;Humidity;BMP_temperature;BMP_pressure;BME280_temperature;BME280_humidity;BME280_pressure;Samples;Min_cycle;Max_cycle;Signal;HPM_P1;HPM_P2
2022/06/07 00:02:53;;;;;;;111.40;104.37;;;;;;;15.29;100.00;101420.97;2058997;69;32703;-74
2022/06/07 00:05:23;;;;;;;112.67;105.50;;;;;;;15.29;100.00;101430.77;2018456;70;26635;-75
2022/06/07 00:07:57;;;;;;;106.47;99.60;;;;;;;15.29;100.00;101430.77;1934598;73;26733;-74
2022/06/07 00:10:28;;;;;;;103.07;96.47;;;;;;;15.21;100.00;101428.66;1900098;74;26328;-75
2022/06/07 00:12:58;;;;;;;106.40;99.60;;;;;;;15.30;100.00;101427.68;1938245;74;26223;-77
2022/06/07 00:15:29;;;;;;;104.10;97.20;;;;;;;15.23;100.00;101426.41;1930421;74;26532;-74
2022/06/07 00:17:59;;;;;;;108.00;101.23;;;;;;;15.14;100.00;101429.05;1930545;74;26695;-77
2022/06/07 00:20:29;;;;;;;108.23;101.40;;;;;;;15.09;100.00;101424.91;1930979;74;26724;-74
2022/06/07 00:22:59;;;;;;;107.80;100.57;;;;;;;15.09;100.00;101426.31;1896242;74;26237;-77
2022/06/07 00:28:36;;;;;;;108.07;100.87;;;;;;;15.10;100.00;101416.79;2052958;69;32621;-75
2022/06/07 00:31:06;;;;;;;107.17;99.80;;;;;;;14.98;100.00;101415.81;2016243;70;26260;-71
2022/06/07 00:33:37;;;;;;;107.03;100.03;;;;;;;14.88;100.00;101417.94;2010927;70;26305;-71
2022/06/07 00:36:09;;;;;;;108.83;101.40;;;;;;;14.86;100.00;101423.81;2005639;70;26364;-75
2022/06/07 00:38:42;;;;;;;111.07;103.83;;;;;;;14.82;100.00;101420.52;2015015;70;26209;-74
2022/06/07 00:41:11;;;;;;;105.90;98.80;;;;;;;14.74;100.00;101419.23;2019651;70;26224;-73
2022/06/07 00:43:43;;;;;;;105.30;98.20;;;;;;;14.73;100.00;101416.72;2020628;70;26445;-73
2022/06/07 00:46:16;;;;;;;107.43;100.43;;;;;;;14.75;100.00;101412.52;2019550;70;24141;-73
2022/06/07 00:48:45;;;;;;;108.43;101.53;;;;;;;14.63;100.00;101412.11;2017393;70;26207;-70
2022/06/07 00:51:16;;;;;;;104.47;97.57;;;;;;;14.51;100.00;101407.48;2023996;70;26201;-74
2022/06/07 00:53:47;;;;;;;106.43;99.43;;;;;;;14.37;100.00;101410.75;2026846;70;26206;-71
2022/06/07 00:56:17;;;;;;;103.97;96.87;;;;;;;14.29;100.00;101411.37;2012205;70;26213;-74
2022/06/07 00:58:48;;;;;;;107.83;101.10;;;;;;;14.33;100.00;101406.84;2013830;70;26208;-71
2022/06/07 01:01:18;;;;;;;114.93;107.73;;;;;;;14.29;100.00;101403.79;2003632;70;26720;-74
2022/06/07 01:03:49;;;;;;;115.50;108.07;;;;;;;14.23;100.00;101406.39;2019817;70;26214;-74
2022/06/07 01:11:55;;;;;;;104.63;97.77;;;;;;;14.01;100.00;101406.90;1980028;72;26221;-74
2022/06/07 01:14:25;;;;;;;103.83;96.83;;;;;;;13.89;100.00;101402.27;1979987;72;26208;-70
2022/06/07 01:16:56;;;;;;;100.80;93.93;;;;;;;13.95;100.00;101402.47;1980670;72;26274;-73
2022/06/07 01:19:27;;;;;;;101.50;94.53;;;;;;;13.84;100.00;101400.08;1984355;72;26232;-69
2022/06/07 01:21:57;;;;;;;103.13;95.97;;;;;;;13.89;100.00;101394.45;1985414;72;26229;-73
2022/06/07 01:24:27;;;;;;;101.53;94.37;;;;;;;13.94;100.00;101398.60;1985674;72;26697;-73
2022/06/07 01:26:58;;;;;;;99.33;92.47;;;;;;;13.83;100.00;101399.80;1971709;72;26314;-70
2022/06/07 01:32:39;;;;;;;100.40;93.70;;;;;;;13.61;100.00;101403.91;2052806;69;32550;-73
2022/06/07 01:35:10;;;;;;;97.63;91.03;;;;;;;13.38;100.00;101407.46;1938030;73;26207;-73
2022/06/07 01:37:41;;;;;;;101.70;94.90;;;;;;;13.37;100.00;101405.78;1932621;73;26306;-70
2022/06/07 01:43:02;;;;;;;102.10;95.20;;;;;;;13.37;100.00;101406.34;1933661;73;26281;-70
2022/06/07 01:45:32;;;;;;;99.33;92.57;;;;;;;13.27;100.00;101397.48;1934970;73;26212;-73
2022/06/07 01:48:02;;;;;;;101.80;95.10;;;;;;;13.12;100.00;101397.59;1948595;73;26215;-73
2022/06/07 01:50:32;;;;;;;98.07;91.27;;;;;;;13.16;100.00;101394.50;2013554;70;26674;-73
2022/06/07 01:53:03;;;;;;;107.57;100.27;;;;;;;13.26;100.00;101390.81;2016634;70;26658;-73
2022/06/07 01:55:33;;;;;;;104.33;97.27;;;;;;;13.29;100.00;101397.20;2016089;70;26694;-70
2022/06/07 01:58:03;;;;;;;98.33;91.53;;;;;;;13.18;100.00;101394.47;2004884;70;26273;-70
2022/06/07 02:00:34;;;;;;;101.43;94.53;;;;;;;13.11;100.00;101394.53;2016011;70;26204;-73
2022/06/07 02:03:04;;;;;;;108.27;101.17;;;;;;;13.07;100.00;101397.59;2026868;70;26279;-73
2022/06/07 02:05:35;;;;;;;107.97;100.80;;;;;;;13.11;100.00;101389.78;2010721;70;26245;-73
2022/06/07 02:11:15;;;;;;;99.97;93.37;;;;;;;12.85;100.00;101375.69;2060863;69;33114;-71
2022/06/07 02:13:46;;;;;;;100.37;93.57;;;;;;;12.81;100.00;101380.73;1943606;73;26428;-74
2022/06/07 02:16:19;;;;;;;98.43;91.73;;;;;;;12.68;100.00;101382.19;2018168;70;26655;-74
2022/06/07 02:18:50;;;;;;;95.63;89.13;;;;;;;12.70;100.00;101373.84;2010784;70;26227;-73
2022/06/07 02:21:24;;;;;;;100.43;93.53;;;;;;;12.59;100.00;101376.94;2014980;70;26524;-69
2022/06/07 02:23:54;;;;;;;104.10;97.27;;;;;;;12.61;100.00;101376.95;2014759;70;26210;-72
2022/06/07 02:26:27;;;;;;;96.60;90.13;;;;;;;12.53;100.00;101375.31;2019915;70;26288;-70
2022/06/07 02:29:00;;;;;;;100.67;93.97;;;;;;;12.35;100.00;101380.12;1934469;73;26211;-73
2022/06/07 02:31:33;;;;;;;96.97;90.67;;;;;;;12.19;100.00;101362.63;1934894;73;26270;-69
2022/06/07 02:34:09;;;;;;;99.13;92.53;;;;;;;12.16;100.00;101370.14;1937703;74;26234;-69
2022/06/07 02:36:39;;;;;;;101.60;94.10;;;;;;;12.24;100.00;101368.16;1937553;73;26710;-71
2022/06/07 02:39:10;;;;;;;103.47;96.67;;;;;;;12.24;100.00;101375.96;1937628;74;26254;-73
2022/06/07 02:41:42;;;;;;;102.20;95.43;;;;;;;12.32;100.00;101368.99;1938572;73;26663;-74
2022/06/07 02:44:12;;;;;;;101.30;94.33;;;;;;;12.39;100.00;101371.46;1932292;73;26215;-71
2022/06/07 02:46:43;;;;;;;102.63;95.80;;;;;;;12.29;100.00;101367.59;1936819;73;26693;-74
2022/06/07 02:49:13;;;;;;;105.43;98.43;;;;;;;12.47;100.00;101369.47;1937940;73;26180;-71
2022/06/07 02:51:43;;;;;;;103.10;96.10;;;;;;;12.60;100.00;101364.12;1933777;73;26376;-71
2022/06/07 02:54:14;;;;;;;104.10;97.03;;;;;;;12.59;100.00;101365.80;1940469;73;26364;-71
2022/06/07 02:56:45;;;;;;;108.17;100.97;;;;;;;12.49;100.00;101358.89;1937673;74;26216;-74
2022/06/07 02:59:15;;;;;;;103.73;97.07;;;;;;;12.50;100.00;101356.36;1934635;73;26717;-70
2022/06/07 03:01:45;;;;;;;104.93;97.37;;;;;;;12.39;100.00;101354.19;2023480;70;26765;-70
2022/06/07 03:04:16;;;;;;;103.67;96.97;;;;;;;12.38;100.00;101353.07;2011621;70;26724;-74
2022/06/07 03:06:46;;;;;;;103.23;96.23;;;;;;;12.35;100.00;101347.52;2006080;70;26293;-71
2022/06/07 03:09:16;;;;;;;98.47;91.73;;;;;;;12.16;100.00;101345.08;1990137;72;26679;-74
2022/06/07 03:11:46;;;;;;;98.57;91.87;;;;;;;12.19;100.00;101340.35;1997444;72;26160;-71
2022/06/07 03:14:17;;;;;;;93.80;87.10;;;;;;;12.27;100.00;101331.41;1997348;72;26627;-74
2022/06/07 03:16:47;;;;;;;98.53;91.57;;;;;;;12.37;100.00;101336.91;1997448;72;26700;-71
2022/06/07 03:19:17;;;;;;;101.97;95.17;;;;;;;12.32;100.00;101326.62;1997386;72;26741;-70
2022/06/07 03:21:48;;;;;;;100.23;93.27;;;;;;;12.06;100.00;101329.81;1996673;72;26204;-74
2022/06/07 03:24:18;;;;;;;101.40;94.60;;;;;;;12.04;100.00;101330.64;1996623;72;26241;-71
2022/06/07 03:26:48;;;;;;;97.20;90.53;;;;;;;11.95;100.00;101337.34;1996825;72;26608;-74
2022/06/07 03:29:19;;;;;;;100.37;93.47;;;;;;;11.93;100.00;101341.55;1996582;72;26193;-74
2022/06/07 03:31:49;;;;;;;101.43;94.27;;;;;;;12.12;100.00;101342.03;1996761;72;26160;-74
2022/06/07 03:34:19;;;;;;;105.50;98.37;;;;;;;12.13;100.00;101353.45;1996647;72;26696;-71
2022/06/07 03:36:49;;;;;;;99.90;92.87;;;;;;;12.17;100.00;101347.59;1996555;72;26254;-74
2022/06/07 03:39:20;;;;;;;104.37;97.00;;;;;;;12.11;100.00;101351.49;1996579;72;26286;-71
2022/06/07 03:41:50;;;;;;;103.90;96.57;;;;;;;12.06;100.00;101350.14;1996680;72;26164;-74
2022/06/07 03:44:20;;;;;;;106.87;99.43;;;;;;;12.04;100.00;101346.80;1996664;72;26694;-74
2022/06/07 03:46:52;;;;;;;102.77;95.87;;;;;;;12.04;100.00;101348.73;1996697;72;26640;-74
2022/06/07 03:49:23;;;;;;;104.67;97.40;;;;;;;11.98;100.00;101345.71;1996612;72;26660;-74
2022/06/07 03:51:54;;;;;;;103.20;96.17;;;;;;;11.93;100.00;101337.37;1996591;72;26164;-74
2022/06/07 03:54:24;;;;;;;102.43;95.53;;;;;;;11.80;100.00;101336.84;1996653;72;26361;-70
2022/06/07 03:56:54;;;;;;;105.07;98.17;;;;;;;11.81;100.00;101346.00;1996658;72;26197;-74
2022/06/07 03:59:27;;;;;;;102.60;95.73;;;;;;;11.84;100.00;101343.52;1996691;72;26160;-72
2022/06/07 04:05:04;;;;;;;102.47;95.50;;;;;;;12.03;100.00;101327.02;2053047;69;32637;-71
2022/06/07 04:10:22;;;;;;;102.03;94.97;;;;;;;11.84;100.00;101335.72;1904101;75;26780;-73
2022/06/07 04:12:52;;;;;;;103.37;96.33;;;;;;;11.77;100.00;101334.60;1901087;74;26653;-70
2022/06/07 04:15:23;;;;;;;103.57;96.57;;;;;;;11.65;100.00;101336.83;1903944;75;26719;-73
2022/06/07 04:17:53;;;;;;;101.70;94.63;;;;;;;11.85;100.00;101338.78;1900894;74;26210;-70
2022/06/07 04:20:24;;;;;;;103.47;96.37;;;;;;;11.77;100.00;101341.56;1902680;74;26690;-73
2022/06/07 04:22:54;;;;;;;101.80;94.67;;;;;;;11.78;100.00;101332.66;1910792;74;26227;-74
2022/06/07 04:25:24;;;;;;;104.53;97.63;;;;;;;11.78;100.00;101338.22;1903140;74;26681;-74
2022/06/07 04:27:55;;;;;;;101.37;94.30;;;;;;;11.79;100.00;101340.73;1905194;74;26230;-70
2022/06/07 04:30:25;;;;;;;104.60;97.70;;;;;;;11.82;100.00;101333.76;1904913;75;26755;-74
2022/06/07 04:32:56;;;;;;;103.93;97.03;;;;;;;11.80;100.00;101338.23;1903974;75;26192;-70
2022/06/07 04:35:29;;;;;;;103.33;96.33;;;;;;;11.78;100.00;101338.22;1906691;74;26217;-73
2022/06/07 04:37:59;;;;;;;104.60;97.77;;;;;;;11.82;100.00;101337.38;1900603;74;26304;-73
2022/06/07 04:40:29;;;;;;;100.33;93.63;;;;;;;11.98;100.00;101340.14;1904058;75;26638;-73
2022/06/07 04:42:59;;;;;;;106.93;100.03;;;;;;;12.00;100.00;101337.34;1910321;74;26654;-73
2022/06/07 04:45:31;;;;;;;106.23;99.40;;;;;;;12.07;100.00;101339.25;1901790;74;26678;-73
2022/06/07 04:48:01;;;;;;;107.63;100.53;;;;;;;12.03;100.00;101340.10;1902024;74;26222;-69
2022/06/07 04:50:32;;;;;;;102.13;95.43;;;;;;;12.06;100.00;101338.16;1900808;74;26239;-73
2022/06/07 04:53:02;;;;;;;107.23;100.43;;;;;;;12.04;100.00;101339.83;1906686;74;26759;-69
2022/06/07 04:55:32;;;;;;;109.27;102.13;;;;;;;12.08;100.00;101338.70;1900394;74;26217;-69
2022/06/07 04:58:02;;;;;;;106.70;99.80;;;;;;;11.98;100.00;101349.89;1906217;74;26763;-73
2022/06/07 05:00:33;;;;;;;102.27;95.47;;;;;;;12.01;100.00;101350.70;1903970;75;26277;-69
2022/06/07 05:03:03;;;;;;;103.40;96.10;;;;;;;12.10;100.00;101345.67;1896494;73;26668;-73
2022/06/07 05:05:33;;;;;;;96.70;90.10;;;;;;;12.26;100.00;101352.02;1920290;75;26186;-70
2022/06/07 05:08:04;;;;;;;101.90;95.30;;;;;;;12.32;100.00;101353.09;1920204;75;26213;-68
2022/06/07 05:10:34;;;;;;;102.63;95.93;;;;;;;12.26;100.00;101359.81;1920071;75;26762;-73
2022/06/07 05:13:04;;;;;;;105.43;98.20;;;;;;;12.17;100.00;101361.52;1920104;75;26618;-72
2022/06/07 05:15:35;;;;;;;99.57;92.70;;;;;;;12.31;100.00;101360.36;1919658;75;26429;-69
2022/06/07 05:18:07;;;;;;;103.20;96.50;;;;;;;12.35;100.00;101353.65;1919410;75;26760;-69
2022/06/07 05:20:39;;;;;;;97.97;91.37;;;;;;;12.33;100.00;101353.92;1919508;75;26275;-70
2022/06/07 05:23:09;;;;;;;97.03;90.37;;;;;;;12.40;100.00;101356.42;1919702;75;26231;-71
2022/06/07 05:25:41;;;;;;;96.10;89.40;;;;;;;12.48;100.00;101361.40;1919712;75;26219;-70
2022/06/07 05:28:12;;;;;;;92.87;86.37;;;;;;;12.57;100.00;101354.95;1919716;75;26762;-71
2022/06/07 05:30:42;;;;;;;92.73;86.03;;;;;;;12.57;100.00;101343.80;1919649;75;26219;-70
2022/06/07 05:36:19;;;;;;;92.23;85.73;;;;;;;12.73;100.00;101342.59;2051973;69;32538;-74
2022/06/07 05:38:49;;;;;;;95.23;88.63;;;;;;;12.73;100.00;101355.70;1935733;73;26216;-74
2022/06/07 05:41:23;;;;;;;90.37;83.87;;;;;;;12.79;100.00;101352.58;1937649;73;26683;-70
2022/06/07 05:43:54;;;;;;;94.07;87.17;;;;;;;12.79;100.00;101357.34;1966345;72;26652;-70
2022/06/07 05:46:25;;;;;;;92.53;86.03;;;;;;;12.96;100.00;101347.20;1931811;73;26259;-74
2022/06/07 05:48:55;;;;;;;101.53;94.73;;;;;;;13.01;100.00;101352.72;1947837;73;26243;-73
2022/06/07 05:51:26;;;;;;;100.87;94.07;;;;;;;13.06;100.00;101345.16;1950257;73;26176;-69
2022/06/07 05:53:56;;;;;;;100.17;93.47;;;;;;;13.14;100.00;101347.91;2023768;71;26246;-70
2022/06/07 05:56:27;;;;;;;98.27;91.43;;;;;;;13.23;100.00;101347.57;2016698;70;26662;-73
2022/06/07 05:58:57;;;;;;;96.73;90.17;;;;;;;13.30;100.00;101342.52;2015869;70;26618;-68
2022/06/07 06:01:30;;;;;;;96.20;89.67;;;;;;;13.27;100.00;101343.63;2012991;70;26203;-73
2022/06/07 06:04:03;;;;;;;95.67;89.37;;;;;;;13.15;100.00;101349.03;2034229;70;26186;-72
2022/06/07 06:06:35;;;;;;;99.97;93.27;;;;;;;13.21;100.00;101347.05;2005079;70;26275;-67
2022/06/07 06:11:54;;;;;;;94.40;88.00;;;;;;;13.32;100.00;101344.44;1935651;74;26756;-72
2022/06/07 06:14:25;;;;;;;96.90;90.20;;;;;;;13.49;100.00;101345.41;1937815;73;26262;-68
2022/06/07 06:20:01;;;;;;;110.67;103.60;;;;;;;13.75;100.00;101335.66;2053805;69;33044;-73
2022/06/07 06:22:34;;;;;;;108.07;101.17;;;;;;;13.65;100.00;101346.36;1939646;73;26245;-74
2022/06/07 06:25:07;;;;;;;107.60;100.70;;;;;;;13.71;100.00;101342.97;1937742;73;26215;-72
2022/06/07 06:27:38;;;;;;;106.70;100.00;;;;;;;13.60;100.00;101350.62;1966234;73;26588;-73
2022/06/07 06:30:11;;;;;;;105.73;99.03;;;;;;;13.69;100.00;101351.63;1936276;73;26233;-70
2022/06/07 06:32:43;;;;;;;98.03;91.30;;;;;;;13.81;100.00;101356.84;1934526;73;26211;-69
2022/06/07 06:35:13;;;;;;;104.70;97.67;;;;;;;13.86;100.00;101353.16;2019585;70;26203;-69
2022/06/07 06:37:45;;;;;;;102.87;96.07;;;;;;;13.93;100.00;101349.45;2013870;70;26653;-73
2022/06/07 06:40:15;;;;;;;97.87;91.00;;;;;;;14.01;100.00;101350.20;2016739;70;26264;-68
2022/06/07 06:42:45;;;;;;;98.40;91.70;;;;;;;13.99;100.00;101349.08;2016670;70;26180;-74
2022/06/07 06:45:16;;;;;;;96.70;90.40;;;;;;;14.10;100.00;101351.22;2012758;70;26211;-74
2022/06/07 06:47:46;;;;;;;95.43;89.03;;;;;;;14.13;100.00;101345.86;2014180;70;26207;-74
2022/06/07 06:50:16;;;;;;;104.20;97.27;;;;;;;14.14;100.00;101352.28;2016798;70;26665;-74
2022/06/07 06:52:47;;;;;;;105.10;97.97;;;;;;;14.13;100.00;101352.01;2018180;70;26269;-69
2022/06/07 06:55:17;;;;;;;103.77;97.27;;;;;;;14.19;100.00;101355.02;2015420;70;26282;-74
2022/06/07 06:57:48;;;;;;;97.20;90.57;;;;;;;14.26;100.00;101350.46;2016645;71;26257;-68
2022/06/07 07:00:20;;;;;;;99.87;93.17;;;;;;;14.33;100.00;101350.95;2016640;70;26742;-75
2022/06/07 07:02:53;;;;;;;95.70;89.07;;;;;;;14.42;100.00;101351.41;2008706;70;26701;-73
2022/06/07 07:05:22;;;;;;;97.87;91.33;;;;;;;14.49;100.00;101350.49;2011162;70;26218;-73
2022/06/07 07:11:08;;;;;;;100.57;93.70;;;;;;;14.63;100.00;101337.18;2038241;69;33171;-75
2022/06/07 07:13:40;;;;;;;97.03;89.70;;;;;;;14.64;100.00;101347.20;2021866;70;26678;-76
2022/06/07 07:16:14;;;;;;;94.53;87.97;;;;;;;14.61;100.00;101348.66;2019433;70;26314;-73
2022/06/07 07:18:45;;;;;;;91.80;85.40;;;;;;;14.70;100.00;101346.86;1930638;73;26206;-72
2022/06/07 07:21:18;;;;;;;96.67;90.23;;;;;;;14.80;100.00;101340.30;1937754;74;26180;-76
2022/06/07 07:23:49;;;;;;;98.40;91.87;;;;;;;14.87;100.00;101344.38;1937632;73;26631;-72
2022/06/07 07:26:21;;;;;;;99.30;92.50;;;;;;;14.92;100.00;101348.50;1966203;73;26172;-75
2022/06/07 07:28:52;;;;;;;97.07;90.30;;;;;;;14.97;100.00;101349.80;1937556;73;26751;-76
2022/06/07 07:31:25;;;;;;;97.23;90.60;;;;;;;15.06;100.00;101347.15;1937747;73;26312;-75
2022/06/07 07:33:56;;;;;;;88.90;82.43;;;;;;;15.15;100.00;101353.73;1937690;74;26804;-75
2022/06/07 07:36:27;;;;;;;92.20;85.77;;;;;;;15.40;100.00;101351.92;1939168;73;26232;-71
2022/06/07 07:38:57;;;;;;;89.03;82.80;;;;;;;15.45;100.00;101350.44;1947874;73;26272;-73
2022/06/07 07:41:30;;;;;;;80.00;74.23;;;;;;;15.74;100.00;101353.63;1942626;73;26212;-72
2022/06/07 07:44:02;;;;;;;78.73;73.13;;;;;;;15.90;100.00;101360.61;1945007;73;26217;-73
2022/06/07 07:46:36;;;;;;;79.90;74.20;;;;;;;16.28;100.00;101351.46;1938942;73;26219;-75
2022/06/07 07:49:07;;;;;;;71.07;66.07;;;;;;;16.40;100.00;101346.16;1949017;73;26198;-76
2022/06/07 07:51:40;;;;;;;68.30;63.47;;;;;;;16.58;100.00;101352.83;1937656;73;26688;-75
2022/06/07 07:54:14;;;;;;;68.73;63.97;;;;;;;16.81;100.00;101349.77;1934403;73;24164;-73
2022/06/07 07:56:47;;;;;;;62.83;58.50;;;;;;;16.91;100.00;101349.28;1946902;73;26214;-72
2022/06/07 07:59:20;;;;;;;73.23;67.77;;;;;;;17.02;100.00;101348.75;1971040;72;26210;-73
2022/06/07 08:01:51;;;;;;;71.50;66.40;;;;;;;17.22;100.00;101342.64;1936719;73;26720;-71
2022/06/07 08:04:24;;;;;;;67.73;63.13;;;;;;;17.11;100.00;101348.83;1935849;73;24227;-73
2022/06/07 08:06:54;;;;;;;73.20;67.90;;;;;;;17.04;100.00;101349.25;1954114;73;26314;-72
2022/06/07 08:09:26;;;;;;;73.00;67.93;;;;;;;17.26;100.00;101349.84;1939607;72;26827;-72
2022/06/07 08:11:58;;;;;;;73.30;68.10;;;;;;;17.27;100.00;101354.33;1931739;74;24198;-72
2022/06/07 08:14:28;;;;;;;64.23;59.90;;;;;;;17.72;100.00;101345.33;1931755;74;24121;-72
2022/06/07 08:17:00;;;;;;;64.33;60.17;;;;;;;17.63;100.00;101343.03;1931905;74;26626;-73
2022/06/07 08:19:31;;;;;;;71.97;67.07;;;;;;;17.47;100.00;101337.53;1931796;74;24553;-73
2022/06/07 08:22:03;;;;;;;61.47;57.37;;;;;;;17.35;100.00;101335.31;1931252;74;24197;-72
2022/06/07 08:24:34;;;;;;;61.37;57.60;;;;;;;17.35;100.00;101335.31;1931206;74;24119;-72
2022/06/07 08:27:05;;;;;;;58.17;54.53;;;;;;;17.43;100.00;101330.33;1931190;74;24124;-72
2022/06/07 08:29:35;;;;;;;51.40;48.33;;;;;;;17.52;100.00;101328.98;1931254;74;24172;-74
2022/06/07 08:32:07;;;;;;;56.43;53.00;;;;;;;17.93;100.00;101324.53;1931196;74;24282;-75
2022/06/07 08:37:37;;;;;;;54.37;51.27;;;;;;;18.15;100.00;101316.87;1931221;74;24663;-72
2022/06/07 08:43:18;;;;;;;65.40;61.33;;;;;;;18.51;100.00;101294.73;2038207;69;30587;-74
2022/06/07 08:45:49;;;;;;;70.90;66.70;;;;;;;18.52;100.00;101298.67;1934422;73;24260;-75
2022/06/07 08:48:24;;;;;;;63.23;59.23;;;;;;;18.65;100.00;101306.11;1945204;73;24156;-74
2022/06/07 08:50:58;;;;;;;52.87;49.47;;;;;;;18.86;100.00;101302.11;1965996;73;24144;-73
2022/06/07 08:53:31;;;;;;;61.07;57.37;;;;;;;18.74;100.00;101303.31;1933557;73;24590;-72
2022/06/07 08:56:04;;;;;;;60.67;56.97;;;;;;;18.98;100.00;101300.03;1937681;74;24132;-71
2022/06/07 08:58:38;;;;;;;59.03;55.33;;;;;;;19.05;100.00;101296.97;1937722;73;26652;-73
2022/06/07 09:01:17;;;;;;;53.27;49.93;;;;;;;18.86;100.00;101299.30;1934240;73;24611;-72
2022/06/07 09:03:56;;;;;;;61.50;57.70;;;;;;;18.80;100.00;101292.73;1966470;72;24163;-72
2022/06/07 09:06:31;;;;;;;58.63;55.17;;;;;;;18.93;100.00;101292.58;1934389;73;24293;-72
2022/06/07 09:09:02;;;;;;;60.43;56.53;;;;;;;18.96;100.00;101289.09;1929992;74;24149;-72
2022/06/07 09:14:46;;;;;;;65.93;62.13;;;;;;;19.30;100.00;101276.98;2053421;69;30644;-74
2022/06/07 09:17:19;;;;;;;61.93;58.30;;;;;;;19.33;100.00;101279.15;1941801;73;24155;-74
2022/06/07 09:23:01;;;;;;;55.50;52.30;;;;;;;19.73;100.00;101279.73;2053888;69;30647;-77
2022/06/07 09:25:35;;;;;;;52.47;49.47;;;;;;;19.69;100.00;101282.98;2019952;70;24207;-77
2022/06/07 09:28:08;;;;;;;51.40;48.40;;;;;;;19.48;100.00;101277.81;2020730;70;24246;-77
2022/06/07 09:30:43;;;;;;;44.63;42.20;;;;;;;19.49;100.00;101273.84;2017256;70;24218;-71
2022/06/07 09:33:24;;;;;;;52.90;50.00;;;;;;;19.10;100.00;101266.41;2016965;70;24170;-77
2022/06/07 09:35:58;;;;;;;53.93;50.63;;;;;;;19.30;100.00;101257.26;2010800;70;24150;-77
2022/06/07 09:38:35;;;;;;;56.27;52.97;;;;;;;19.21;100.00;101258.45;2016445;70;26682;-77
2022/06/07 09:41:36;;;;;;;59.83;56.23;;;;;;;19.42;100.00;101262.23;2012990;70;26755;-77
2022/06/07 09:43:45;;;;;;;58.50;55.13;;;;;;;19.50;100.00;101255.20;2010110;70;26802;-72
2022/06/07 09:49:41;;;;;;;55.60;52.23;;;;;;;19.75;100.00;101249.80;2061022;69;31071;-74
2022/06/07 09:55:28;;;;;;;49.80;47.00;;;;;;;19.97;100.00;101245.32;2046056;69;30595;-72
2022/06/07 09:58:16;;;;;;;47.50;44.80;;;;;;;20.28;100.00;101244.39;1940141;73;24278;-74
2022/06/07 10:00:50;;;;;;;49.80;46.97;;;;;;;20.35;100.00;101243.31;1937809;74;26633;-71
2022/06/07 10:03:29;;;;;;;48.30;45.37;;;;;;;20.32;100.00;101233.30;1964135;72;24234;-71
2022/06/07 10:09:47;;;;;;;47.83;45.23;;;;;;;20.68;100.00;101222.23;2049671;69;33135;-75
2022/06/07 10:12:22;;;;;;;40.13;38.00;;;;;;;20.62;100.00;101222.22;2024276;70;24121;-71
2022/06/07 10:14:57;;;;;;;43.23;41.13;;;;;;;20.37;100.00;101220.37;1927572;73;24150;-72
2022/06/07 10:17:56;;;;;;;44.33;42.03;;;;;;;20.23;100.00;101215.56;1942033;74;26283;-73
2022/06/07 10:20:30;;;;;;;45.93;43.53;;;;;;;20.17;100.00;101214.09;1937733;74;24642;-73
2022/06/07 10:23:07;;;;;;;47.47;44.93;;;;;;;20.21;100.00;101217.89;1937752;74;24152;-73
2022/06/07 10:25:42;;;;;;;45.80;43.40;;;;;;;20.19;100.00;101217.42;1963025;72;24127;-72
2022/06/07 10:28:18;;;;;;;48.23;45.73;;;;;;;20.23;100.00;101220.63;1925130;73;24180;-72
2022/06/07 10:30:52;;;;;;;47.53;45.03;;;;;;;20.25;100.00;101215.45;1937677;74;24653;-72
2022/06/07 10:33:51;;;;;;;41.97;39.80;;;;;;;20.43;100.00;101217.61;1937796;74;24249;-75
2022/06/07 10:36:31;;;;;;;47.13;44.63;;;;;;;20.35;100.00;101213.69;1969913;72;24603;-76
2022/06/07 10:39:11;;;;;;;44.87;42.57;;;;;;;20.23;100.00;101218.39;1935594;73;24164;-74
2022/06/07 10:41:46;;;;;;;51.67;48.70;;;;;;;20.24;100.00;101212.96;2015419;70;24597;-73
2022/06/07 10:44:20;;;;;;;48.33;45.57;;;;;;;20.46;100.00;101214.09;2017689;70;24247;-73
2022/06/07 10:46:51;;;;;;;49.60;46.70;;;;;;;20.55;100.00;101209.22;2010268;70;24158;-72
2022/06/07 10:49:26;;;;;;;48.10;45.50;;;;;;;20.68;100.00;101212.94;2031742;70;24181;-73
2022/06/07 10:54:55;;;;;;;47.13;44.63;;;;;;;20.71;100.00;101206.01;1937861;73;24169;-75
2022/06/07 10:57:28;;;;;;;47.37;44.87;;;;;;;20.86;100.00;101201.73;1935017;73;24149;-72
2022/06/07 11:00:01;;;;;;;47.73;44.83;;;;;;;21.00;100.00;101202.86;1972762;72;24252;-74
2022/06/07 11:02:36;;;;;;;46.23;43.83;;;;;;;21.04;100.00;101212.30;1927201;72;24126;-74
2022/06/07 11:10:55;;;;;;;37.43;35.53;;;;;;;21.10;100.00;101205.23;1910046;74;24195;-72
2022/06/07 11:16:37;;;;;;;41.77;39.67;;;;;;;20.86;100.00;101200.33;2049112;69;30634;-72
2022/06/07 11:22:19;;;;;;;47.30;44.90;;;;;;;20.70;100.00;101207.20;2041479;69;30593;-75
2022/06/07 11:25:00;;;;;;;48.07;45.57;;;;;;;20.59;100.00;101213.58;1937941;73;24664;-74
2022/06/07 11:27:31;;;;;;;50.37;47.73;;;;;;;20.49;100.00;101216.25;1933564;73;24157;-72
2022/06/07 11:30:26;;;;;;;47.97;45.47;;;;;;;20.52;100.00;101214.73;1928050;73;24173;-72
2022/06/07 11:32:58;;;;;;;47.00;44.60;;;;;;;20.52;100.00;101210.50;1937831;73;24222;-73
2022/06/07 11:35:48;;;;;;;47.17;44.67;;;;;;;20.47;100.00;101205.05;1934099;73;24152;-70
2022/06/07 11:38:34;;;;;;;45.50;43.20;;;;;;;20.43;100.00;101204.33;1965305;72;24220;-74
2022/06/07 11:41:54;;;;;;;47.23;44.63;;;;;;;20.54;100.00;101203.94;1943677;73;24679;-76
2022/06/07 11:44:41;;;;;;;48.33;45.60;;;;;;;20.59;100.00;101203.13;1967028;72;24611;-76
2022/06/07 11:47:29;;;;;;;47.43;44.93;;;;;;;20.62;100.00;101206.69;1931594;73;24156;-71
2022/06/07 11:50:17;;;;;;;47.87;45.30;;;;;;;20.66;100.00;101192.70;1937745;73;24266;-75
2022/06/07 11:52:58;;;;;;;44.53;42.33;;;;;;;20.81;100.00;101201.36;1936589;73;24242;-75
2022/06/07 11:55:34;;;;;;;45.33;43.05;;;;;;;20.85;100.00;101190.20;1937736;74;24132;-75
2022/06/07 11:58:07;;;;;;;47.80;45.40;;;;;;;20.85;100.00;101188.20;1964811;72;24201;-76
2022/06/07 12:00:49;;;;;;;45.28;42.98;;;;;;;21.02;100.00;101182.97;1930916;73;24192;-71
2022/06/07 12:03:35;;;;;;;45.63;43.27;;;;;;;20.90;100.00;101181.52;1932567;73;24156;-71
2022/06/07 12:06:26;;;;;;;46.60;44.20;;;;;;;20.89;100.00;101180.69;2009630;70;24239;-69
2022/06/07 12:09:01;;;;;;;48.73;46.13;;;;;;;20.92;100.00;101169.89;1920438;75;24231;-75
2022/06/07 12:11:34;;;;;;;44.35;42.15;;;;;;;21.07;100.00;101174.87;1920321;74;24181;-69
2022/06/07 12:14:29;;;;;;;45.50;43.20;;;;;;;20.96;100.00;101164.61;1920235;75;24200;-69
2022/06/07 12:17:03;;;;;;;48.33;45.67;;;;;;;20.93;100.00;101172.34;1880343;76;24149;-75
2022/06/07 12:19:36;;;;;;;43.57;41.27;;;;;;;20.86;100.00;101173.50;1880244;76;24208;-70
2022/06/07 12:22:15;;;;;;;44.50;42.20;;;;;;;20.72;100.00;101176.61;1880235;76;24604;-74
2022/06/07 12:24:49;;;;;;;46.53;44.03;;;;;;;20.81;100.00;101171.72;1880156;76;24678;-71
2022/06/07 12:27:26;;;;;;;46.77;44.27;;;;;;;20.84;100.00;101168.19;1880078;76;24201;-70
2022/06/07 12:30:01;;;;;;;47.80;45.30;;;;;;;20.80;100.00;101164.99;1880142;76;24564;-76
2022/06/07 12:32:33;;;;;;;45.47;43.17;;;;;;;20.98;100.00;101166.48;1879947;76;24270;-76
2022/06/07 12:35:18;;;;;;;48.25;45.65;;;;;;;20.92;100.00;101167.06;1879571;76;24150;-70
2022/06/07 12:37:51;;;;;;;46.28;43.78;;;;;;;20.91;100.00;101160.58;1879736;76;24190;-70